Time;durP1;ratioP1;P1;durP2;ratioP2;P2;SDS_P1;SDS_P2;PMS_P1;PMS_P2;Temp;Humidity;BMP_temperature;BMP_pressure;BME280_temperature;BME280_humidity;BME280_pressure;Samples;Min_cycle;Max_cycle;Signal;HPM_P1;HPM_P2
2022/08/07 00:00:46;;;;;;;9.15;3.55;;;;;;;;;;5037839;28;20084;-75
2022/08/07 00:03:12;;;;;;;6.05;3.38;;;;;;;;;;5031792;28;20022;-75
2022/08/07 00:05:38;;;;;;;4.57;3.40;;;;;;;;;;5034935;28;20064;-75
2022/08/07 00:08:05;;;;;;;6.53;3.17;;;;;;;;;;5034944;28;20049;-77
2022/08/07 00:10:31;;;;;;;7.90;3.60;;;;;;;;;;5034470;28;20449;-73
2022/08/07 00:13:04;;;;;;;9.93;3.55;;;;;;;;;;5032041;28;20111;-74
2022/08/07 00:15:30;;;;;;;;;;;;;;;;;;5035255;28;20410;-76
2022/08/07 00:17:56;;;;;;;6.85;3.63;;;;;;;;;;5035041;28;19905;-76
2022/08/07 00:20:23;;;;;;;8.70;3.53;;;;;;;;;;5034965;28;20030;-75
2022/08/07 00:22:49;;;;;;;5.43;3.38;;;;;;;;;;5033555;28;20029;-75
2022/08/07 00:25:15;;;;;;;5.30;3.40;;;;;;;;;;5033068;28;20064;-74
2022/08/07 00:27:41;;;;;;;7.13;3.55;;;;;;;;;;5033933;28;20080;-74
2022/08/07 00:30:08;;;;;;;5.68;3.30;;;;;;;;;;5034842;28;20434;-75
2022/08/07 00:32:34;;;;;;;5.70;3.80;;;;;;;;;;5034171;28;20108;-76
2022/08/07 00:35:00;;;;;;;10.75;3.90;;;;;;;;;;5025554;28;20046;-77
2022/08/07 00:37:27;;;;;;;7.25;3.83;;;;;;;;;;5020180;28;20050;-74
2022/08/07 00:39:53;;;;;;;7.18;3.92;;;;;;;;;;5014730;28;20026;-75
2022/08/07 00:42:20;;;;;;;7.43;3.90;;;;;;;;;;5014550;28;20104;-73
2022/08/07 00:44:46;;;;;;;7.63;4.28;;;;;;;;;;5011323;28;20022;-72
2022/08/07 00:47:12;;;;;;;9.20;4.43;;;;;;;;;;5016982;28;20029;-74
2022/08/07 00:49:38;;;;;;;8.73;4.00;;;;;;;;;;5014518;28;20073;-73
2022/08/07 00:52:08;;;;;;;8.85;4.78;;;;;;;;;;5027629;28;20079;-74
2022/08/07 00:54:34;;;;;;;5.32;4.43;;;;;;;;;;5014090;28;20096;-75
2022/08/07 00:57:00;;;;;;;12.27;4.45;;;;;;;;;;5017286;28;20041;-74
2022/08/07 00:59:27;;;;;;;7.25;4.35;;;;;;;;;;5014208;28;20419;-77
2022/08/07 01:01:53;;;;;;;8.43;4.10;;;;;;;;;;5014441;28;20030;-77
2022/08/07 01:04:19;;;;;;;6.45;4.35;;;;;;;;;;5012628;28;20104;-74
2022/08/07 01:06:45;;;;;;;6.35;4.60;;;;;;;;;;5019265;28;20049;-75
2022/08/07 01:09:12;;;;;;;8.75;4.78;;;;;;;;;;5009852;28;20101;-75
2022/08/07 01:11:38;;;;;;;5.55;4.45;;;;;;;;;;5014194;28;20029;-75
2022/08/07 01:14:04;;;;;;;7.85;4.07;;;;;;;;;;5016655;28;20060;-73
2022/08/07 01:16:30;;;;;;;10.57;4.35;;;;;;;;;;5014602;28;20034;-76
2022/08/07 01:18:56;;;;;;;8.10;4.38;;;;;;;;;;5023461;28;20145;-76
2022/08/07 01:21:25;;;;;;;6.70;3.95;;;;;;;;;;5016471;28;20022;-76
2022/08/07 01:23:53;;;;;;;12.40;4.18;;;;;;;;;;5024846;28;20479;-74
2022/08/07 01:26:20;;;;;;;6.82;3.95;;;;;;;;;;5012785;28;20022;-77
2022/08/07 01:28:47;;;;;;;7.93;4.25;;;;;;;;;;5026388;28;20026;-77
2022/08/07 01:31:14;;;;;;;7.05;3.65;;;;;;;;;;5013801;28;20053;-73
2022/08/07 01:33:40;;;;;;;7.00;4.00;;;;;;;;;;5013578;28;20026;-74
2022/08/07 01:36:08;;;;;;;6.78;3.85;;;;;;;;;;5032390;28;20053;-75
2022/08/07 01:38:34;;;;;;;6.43;3.90;;;;;;;;;;5030085;28;20541;-74
2022/08/07 01:41:02;;;;;;;6.22;3.47;;;;;;;;;;5015554;28;20571;-77
2022/08/07 01:43:28;;;;;;;5.03;3.75;;;;;;;;;;5032295;28;20025;-77
2022/08/07 01:45:54;;;;;;;9.10;3.70;;;;;;;;;;5016916;28;20036;-75
2022/08/07 01:48:21;;;;;;;5.18;4.10;;;;;;;;;;5030829;28;20033;-75
2022/08/07 01:50:49;;;;;;;11.07;3.85;;;;;;;;;;5033094;28;21559;-75
2022/08/07 01:53:16;;;;;;;6.20;3.75;;;;;;;;;;5033278;28;20030;-76
2022/08/07 01:55:45;;;;;;;7.65;4.10;;;;;;;;;;5032874;28;20072;-74
2022/08/07 01:58:12;;;;;;;5.60;4.00;;;;;;;;;;5031143;28;20092;-75
2022/08/07 02:00:39;;;;;;;6.13;3.65;;;;;;;;;;5032395;28;20786;-77
2022/08/07 02:03:14;;;;;;;5.05;3.65;;;;;;;;;;5033144;28;20052;-76
2022/08/07 02:05:45;;;;;;;8.55;3.88;;;;;;;;;;5032710;28;20032;-76
2022/08/07 02:08:14;;;;;;;5.63;3.33;;;;;;;;;;5032791;28;20083;-70
2022/08/07 02:10:41;;;;;;;5.28;3.85;;;;;;;;;;5028867;28;20021;-75
2022/08/07 02:13:08;;;;;;;3.80;3.25;;;;;;;;;;5030851;28;20364;-75
2022/08/07 02:15:35;;;;;;;5.50;3.80;;;;;;;;;;5032970;28;20072;-74
2022/08/07 02:18:02;;;;;;;9.82;3.58;;;;;;;;;;5030635;28;20040;-77
2022/08/07 02:20:29;;;;;;;6.05;3.88;;;;;;;;;;5030755;28;20021;-76
2022/08/07 02:23:04;;;;;;;8.85;3.70;;;;;;;;;;5019151;28;20041;-75
2022/08/07 02:25:31;;;;;;;7.40;4.15;;;;;;;;;;5032516;28;20021;-76
2022/08/07 02:27:58;;;;;;;4.50;3.63;;;;;;;;;;5032043;28;20025;-73
2022/08/07 02:30:25;;;;;;;5.45;3.47;;;;;;;;;;5030367;28;20021;-77
2022/08/07 02:32:52;;;;;;;9.25;3.50;;;;;;;;;;5032646;28;20558;-76
2022/08/07 02:35:18;;;;;;;4.82;3.60;;;;;;;;;;5031906;28;20050;-76
2022/08/07 02:37:46;;;;;;;5.50;3.63;;;;;;;;;;5011631;28;20042;-74
2022/08/07 02:40:12;;;;;;;4.63;3.58;;;;;;;;;;5029641;28;20037;-76
2022/08/07 02:42:38;;;;;;;10.80;3.45;;;;;;;;;;5030748;28;20026;-73
2022/08/07 02:45:06;;;;;;;8.38;3.67;;;;;;;;;;5032482;28;20080;-74
2022/08/07 02:47:32;;;;;;;5.68;3.35;;;;;;;;;;5030090;28;20053;-76
2022/08/07 02:49:58;;;;;;;9.60;3.90;;;;;;;;;;5032060;28;20537;-75
2022/08/07 02:52:44;;;;;;;4.25;3.33;;;;;;;;;;5028235;28;21033;-76
2022/08/07 02:55:17;;;;;;;7.70;3.78;;;;;;;;;;5032467;28;20029;-75
2022/08/07 02:57:43;;;;;;;;;;;;;;;;;;5032805;28;20038;-75
2022/08/07 03:00:10;;;;;;;7.00;3.88;;;;;;;;;;5032395;28;20248;-72
2022/08/07 03:02:36;;;;;;;6.90;3.70;;;;;;;;;;5030650;28;20028;-74
2022/08/07 03:05:03;;;;;;;5.50;3.40;;;;;;;;;;5032647;28;20402;-74
2022/08/07 03:07:30;;;;;;;5.97;3.80;;;;;;;;;;5033698;28;20556;-74
2022/08/07 03:09:56;;;;;;;10.95;3.80;;;;;;;;;;5032107;28;20033;-78
2022/08/07 03:12:22;;;;;;;5.82;3.88;;;;;;;;;;5031470;28;20030;-74
2022/08/07 03:14:49;;;;;;;5.82;3.80;;;;;;;;;;5034077;28;20030;-75
2022/08/07 03:17:15;;;;;;;7.03;3.90;;;;;;;;;;5030132;28;20049;-75
2022/08/07 03:19:42;;;;;;;6.88;3.72;;;;;;;;;;5031736;28;20053;-75
2022/08/07 03:22:08;;;;;;;4.63;3.80;;;;;;;;;;5032334;28;20033;-74
2022/08/07 03:24:34;;;;;;;8.00;4.45;;;;;;;;;;5029738;28;20026;-74
2022/08/07 03:27:02;;;;;;;4.88;4.03;;;;;;;;;;5030589;28;20034;-73
2022/08/07 03:29:39;;;;;;;5.43;3.97;;;;;;;;;;5031465;28;20029;-74
2022/08/07 03:32:06;;;;;;;5.35;3.80;;;;;;;;;;5018819;28;20021;-74
2022/08/07 03:34:33;;;;;;;6.18;4.45;;;;;;;;;;5030109;28;20061;-74
2022/08/07 03:37:02;;;;;;;5.45;4.20;;;;;;;;;;5029898;28;20042;-75
2022/08/07 03:39:29;;;;;;;6.63;4.70;;;;;;;;;;5035583;28;20033;-74
2022/08/07 03:41:55;;;;;;;7.65;4.28;;;;;;;;;;5034653;28;20036;-74
2022/08/07 03:44:21;;;;;;;6.80;4.30;;;;;;;;;;5034386;28;20035;-75
2022/08/07 03:46:48;;;;;;;6.53;4.32;;;;;;;;;;5033463;28;20087;-75
2022/08/07 03:49:14;;;;;;;6.63;4.57;;;;;;;;;;5035249;28;20425;-76
2022/08/07 03:51:40;;;;;;;6.45;4.93;;;;;;;;;;5035329;28;20025;-76
2022/08/07 03:54:07;;;;;;;9.23;5.40;;;;;;;;;;5035730;28;20017;-74
2022/08/07 03:56:35;;;;;;;8.95;5.57;;;;;;;;;;5031460;28;20478;-71
2022/08/07 03:59:03;;;;;;;8.45;4.85;;;;;;;;;;5034669;28;20568;-74
2022/08/07 04:01:29;;;;;;;5.60;4.90;;;;;;;;;;5034613;28;20108;-73
2022/08/07 04:03:55;;;;;;;9.05;4.82;;;;;;;;;;5034933;28;20382;-74
2022/08/07 04:06:21;;;;;;;8.50;4.95;;;;;;;;;;5034900;28;20039;-74
2022/08/07 04:08:48;;;;;;;6.32;4.70;;;;;;;;;;5033099;28;20104;-77
2022/08/07 04:11:14;;;;;;;7.10;4.40;;;;;;;;;;5035046;28;20497;-74
2022/08/07 04:13:40;;;;;;;5.18;4.28;;;;;;;;;;5032696;28;20021;-74
2022/08/07 04:16:06;;;;;;;7.30;4.40;;;;;;;;;;5034719;28;20482;-74
2022/08/07 04:18:33;;;;;;;7.53;4.68;;;;;;;;;;5032919;28;20021;-74
2022/08/07 04:20:59;;;;;;;5.38;4.35;;;;;;;;;;5033236;28;20042;-76
2022/08/07 04:23:25;;;;;;;5.50;4.22;;;;;;;;;;5034516;28;20049;-76
2022/08/07 04:25:52;;;;;;;7.60;3.97;;;;;;;;;;5032284;28;20098;-73
2022/08/07 04:28:19;;;;;;;5.68;4.13;;;;;;;;;;5032841;28;20029;-74
2022/08/07 04:30:49;;;;;;;4.97;3.95;;;;;;;;;;5034644;28;20017;-76
2022/08/07 04:33:16;;;;;;;6.90;4.20;;;;;;;;;;5034149;28;20029;-75
2022/08/07 04:35:45;;;;;;;6.07;4.10;;;;;;;;;;5032816;28;20124;-73
2022/08/07 04:38:11;;;;;;;6.22;3.80;;;;;;;;;;5034401;28;20029;-74
2022/08/07 04:40:41;;;;;;;5.97;3.95;;;;;;;;;;5031326;28;20021;-74
2022/08/07 04:43:07;;;;;;;4.75;4.07;;;;;;;;;;5033294;28;20120;-73
2022/08/07 04:45:52;;;;;;;5.13;4.05;;;;;;;;;;5033921;28;20095;-72
2022/08/07 04:48:18;;;;;;;5.03;4.28;;;;;;;;;;5033229;28;20125;-74
2022/08/07 04:50:48;;;;;;;5.47;3.70;;;;;;;;;;5031612;28;20112;-79
2022/08/07 04:53:19;;;;;;;6.55;4.25;;;;;;;;;;5034265;28;20386;-73
2022/08/07 04:55:45;;;;;;;5.80;4.00;;;;;;;;;;5031889;28;20471;-77
2022/08/07 04:58:20;;;;;;;6.43;3.85;;;;;;;;;;5032632;28;20045;-70
2022/08/07 05:00:58;;;;;;;7.05;4.00;;;;;;;;;;5031002;28;20025;-77
2022/08/07 05:03:33;;;;;;;4.72;3.90;;;;;;;;;;5029133;28;20025;-78
2022/08/07 05:05:59;;;;;;;5.05;4.10;;;;;;;;;;5034039;28;20037;-74
2022/08/07 05:09:04;;;;;;;6.07;3.55;;;;;;;;;;5032756;28;20091;-75
2022/08/07 05:11:31;;;;;;;5.97;3.75;;;;;;;;;;4936972;29;20034;-77
2022/08/07 05:14:00;;;;;;;4.25;3.80;;;;;;;;;;4936113;29;20047;-77
2022/08/07 05:16:28;;;;;;;5.25;3.78;;;;;;;;;;4934084;29;20048;-77
2022/08/07 05:18:55;;;;;;;7.00;4.03;;;;;;;;;;4937944;29;20111;-79
2022/08/07 05:21:25;;;;;;;6.28;3.90;;;;;;;;;;4933913;29;20513;-71
2022/08/07 05:23:53;;;;;;;5.68;3.78;;;;;;;;;;4935821;29;20504;-73
2022/08/07 05:26:20;;;;;;;6.65;4.07;;;;;;;;;;4933673;29;20496;-74
2022/08/07 05:28:49;;;;;;;5.97;3.60;;;;;;;;;;4938038;29;20066;-74
2022/08/07 05:31:16;;;;;;;6.68;3.97;;;;;;;;;;4933685;29;20160;-75
2022/08/07 05:33:42;;;;;;;5.53;3.60;;;;;;;;;;4932536;29;20130;-77
2022/08/07 05:36:09;;;;;;;10.65;3.70;;;;;;;;;;4932587;29;20144;-70
2022/08/07 05:38:36;;;;;;;6.00;3.45;;;;;;;;;;4934064;29;20501;-79
2022/08/07 05:41:02;;;;;;;10.38;3.72;;;;;;;;;;4934783;28;20035;-77
2022/08/07 05:43:29;;;;;;;4.03;3.58;;;;;;;;;;5031461;28;20033;-72
2022/08/07 05:45:56;;;;;;;5.50;3.83;;;;;;;;;;5030989;28;20068;-76
2022/08/07 05:48:23;;;;;;;6.00;3.60;;;;;;;;;;5027341;28;20017;-77
2022/08/07 05:50:49;;;;;;;3.92;3.50;;;;;;;;;;5031877;28;20030;-74
2022/08/07 05:53:15;;;;;;;6.60;3.92;;;;;;;;;;5031424;28;20383;-74
2022/08/07 05:55:41;;;;;;;6.65;3.65;;;;;;;;;;5033023;28;20025;-76
2022/08/07 05:58:09;;;;;;;6.57;3.55;;;;;;;;;;5032517;28;20441;-75
2022/08/07 06:00:36;;;;;;;4.03;3.63;;;;;;;;;;5032707;28;20057;-73
2022/08/07 06:03:05;;;;;;;6.38;3.70;;;;;;;;;;5030748;28;20038;-72
2022/08/07 06:05:31;;;;;;;6.13;3.50;;;;;;;;;;5032235;28;20057;-75
2022/08/07 06:07:59;;;;;;;5.15;3.83;;;;;;;;;;5025304;28;20037;-74
2022/08/07 06:10:25;;;;;;;7.05;3.65;;;;;;;;;;5033183;28;20029;-74
2022/08/07 06:12:51;;;;;;;4.35;3.80;;;;;;;;;;5031105;28;20461;-69
2022/08/07 06:15:18;;;;;;;8.65;3.63;;;;;;;;;;5032876;28;20025;-72
2022/08/07 06:17:44;;;;;;;3.90;3.40;;;;;;;;;;5032210;28;20041;-72
2022/08/07 06:20:10;;;;;;;5.15;3.60;;;;;;;;;;5032197;28;20076;-71
2022/08/07 06:22:37;;;;;;;4.65;3.40;;;;;;;;;;5028271;28;20025;-73
2022/08/07 06:25:04;;;;;;;4.60;3.67;;;;;;;;;;5032914;28;20104;-74
2022/08/07 06:27:30;;;;;;;4.30;3.72;;;;;;;;;;5029711;28;20036;-72
2022/08/07 06:29:56;;;;;;;5.57;3.65;;;;;;;;;;5030554;28;20056;-69
2022/08/07 06:32:22;;;;;;;6.60;4.10;;;;;;;;;;5029555;28;20025;-71
2022/08/07 06:34:48;;;;;;;18.05;8.27;;;;;;;;;;5029734;28;20540;-77
2022/08/07 06:37:14;;;;;;;7.68;4.40;;;;;;;;;;5021368;28;20399;-73
2022/08/07 06:39:41;;;;;;;7.40;4.10;;;;;;;;;;5029801;28;20471;-69
2022/08/07 06:42:08;;;;;;;7.00;3.92;;;;;;;;;;5032201;28;20429;-70
2022/08/07 06:44:35;;;;;;;15.40;4.80;;;;;;;;;;5031728;28;20029;-73
2022/08/07 06:47:01;;;;;;;8.98;3.70;;;;;;;;;;5031960;28;20044;-71
2022/08/07 06:49:27;;;;;;;4.93;3.40;;;;;;;;;;5031931;28;20026;-70
2022/08/07 06:51:54;;;;;;;5.50;3.20;;;;;;;;;;5032034;28;20029;-70
2022/08/07 06:54:22;;;;;;;5.10;3.40;;;;;;;;;;5031346;28;20452;-73
2022/08/07 06:56:49;;;;;;;5.60;3.60;;;;;;;;;;5031536;28;20022;-70
2022/08/07 06:59:30;;;;;;;8.65;3.70;;;;;;;;;;5028985;28;20495;-73
2022/08/07 07:01:57;;;;;;;6.28;4.10;;;;;;;;;;5026278;28;20029;-74
2022/08/07 07:04:24;;;;;;;5.13;3.20;;;;;;;;;;5027900;28;20395;-78
2022/08/07 07:06:50;;;;;;;3.88;3.30;;;;;;;;;;5027870;28;20029;-78
2022/08/07 07:09:20;;;;;;;6.43;3.42;;;;;;;;;;5029863;28;20029;-76
2022/08/07 07:12:01;;;;;;;6.25;3.53;;;;;;;;;;5029840;28;20549;-78
2022/08/07 07:14:28;;;;;;;4.88;3.67;;;;;;;;;;5031120;28;20120;-75
2022/08/07 07:16:57;;;;;;;5.63;3.55;;;;;;;;;;5030407;28;20029;-75
2022/08/07 07:19:35;;;;;;;8.77;4.00;;;;;;;;;;5036027;28;20386;-78
2022/08/07 07:22:01;;;;;;;4.50;4.10;;;;;;;;;;5035513;28;20048;-68
2022/08/07 07:24:28;;;;;;;4.30;3.90;;;;;;;;;;5033572;28;20125;-73
2022/08/07 07:26:56;;;;;;;5.82;3.75;;;;;;;;;;5031029;28;20127;-75
2022/08/07 07:29:24;;;;;;;6.05;4.03;;;;;;;;;;5033424;28;20113;-72
2022/08/07 07:31:54;;;;;;;5.82;3.90;;;;;;;;;;5030255;28;20029;-74
2022/08/07 07:34:24;;;;;;;4.72;3.92;;;;;;;;;;5028885;28;20045;-76
2022/08/07 07:36:51;;;;;;;7.10;4.30;;;;;;;;;;5030350;28;20124;-76
2022/08/07 07:39:19;;;;;;;10.27;4.00;;;;;;;;;;5028790;28;20387;-75
2022/08/07 07:41:47;;;;;;;4.47;4.03;;;;;;;;;;5034265;28;20025;-73
2022/08/07 07:44:14;;;;;;;4.75;4.22;;;;;;;;;;5032353;28;20049;-77
2022/08/07 07:46:40;;;;;;;6.38;3.63;;;;;;;;;;5024229;28;20029;-72
2022/08/07 07:49:07;;;;;;;8.40;4.00;;;;;;;;;;5030957;28;20119;-74
2022/08/07 07:51:34;;;;;;;8.77;3.97;;;;;;;;;;5032781;28;20048;-76
2022/08/07 07:54:01;;;;;;;6.53;3.78;;;;;;;;;;5031836;28;20041;-73
2022/08/07 07:56:29;;;;;;;5.57;3.60;;;;;;;;;;5028711;28;20037;-76
2022/08/07 07:58:55;;;;;;;12.02;5.22;;;;;;;;;;5030408;28;20025;-75
2022/08/07 08:01:21;;;;;;;10.10;5.00;;;;;;;;;;5033159;28;20079;-76
2022/08/07 08:03:48;;;;;;;4.55;3.72;;;;;;;;;;5031523;28;20025;-75
2022/08/07 08:06:15;;;;;;;7.43;3.90;;;;;;;;;;5032979;28;20082;-76
2022/08/07 08:08:42;;;;;;;9.68;4.47;;;;;;;;;;5031464;28;20454;-79
2022/08/07 08:11:10;;;;;;;5.10;4.10;;;;;;;;;;5033835;28;20076;-69
2022/08/07 08:13:38;;;;;;;9.48;5.03;;;;;;;;;;5032264;28;20013;-71
2022/08/07 08:16:05;;;;;;;5.85;4.10;;;;;;;;;;5031350;28;20067;-71
2022/08/07 08:18:32;;;;;;;8.00;4.88;;;;;;;;;;5033343;28;20084;-74
2022/08/07 08:21:00;;;;;;;27.90;11.32;;;;;;;;;;5023348;28;20049;-76
2022/08/07 08:28:59;;;;;;;6.43;4.32;;;;;;;;;;5031981;28;20044;-77
2022/08/07 08:31:32;;;;;;;8.02;4.53;;;;;;;;;;5030276;28;20026;-71
2022/08/07 08:34:00;;;;;;;12.98;6.55;;;;;;;;;;5031455;28;20037;-71
2022/08/07 08:36:28;;;;;;;14.43;4.60;;;;;;;;;;5031945;28;20038;-68
2022/08/07 08:38:55;;;;;;;10.43;5.57;;;;;;;;;;5029764;28;20033;-67
2022/08/07 08:41:21;;;;;;;7.55;4.53;;;;;;;;;;5026351;28;20025;-68
2022/08/07 08:44:07;;;;;;;12.73;4.63;;;;;;;;;;5030317;28;20029;-68
2022/08/07 08:46:43;;;;;;;11.98;5.05;;;;;;;;;;5032406;28;20112;-69
2022/08/07 08:49:27;;;;;;;8.25;4.75;;;;;;;;;;5028385;28;20025;-69
2022/08/07 08:51:59;;;;;;;6.20;4.60;;;;;;;;;;5028756;28;20505;-70
2022/08/07 08:54:30;;;;;;;11.13;5.00;;;;;;;;;;5030241;28;20026;-70
2022/08/07 08:56:57;;;;;;;6.90;4.47;;;;;;;;;;5030551;28;20037;-69
2022/08/07 08:59:39;;;;;;;8.45;5.03;;;;;;;;;;5031218;28;20037;-70
2022/08/07 09:02:24;;;;;;;5.38;4.50;;;;;;;;;;5032526;28;20025;-69
2022/08/07 09:04:59;;;;;;;8.57;4.60;;;;;;;;;;5026614;28;20059;-69
2022/08/07 09:07:36;;;;;;;7.40;4.55;;;;;;;;;;5027209;28;20105;-70
2022/08/07 09:10:10;;;;;;;10.10;4.63;;;;;;;;;;5030098;28;20047;-68
2022/08/07 09:12:36;;;;;;;6.60;4.07;;;;;;;;;;5029689;28;20029;-70
2022/08/07 09:15:17;;;;;;;4.13;3.67;;;;;;;;;;5031018;28;20529;-69
2022/08/07 09:17:56;;;;;;;10.02;4.30;;;;;;;;;;5033042;28;20033;-68
2022/08/07 09:20:28;;;;;;;6.53;3.92;;;;;;;;;;5032879;28;20061;-70
2022/08/07 09:22:57;;;;;;;6.47;3.90;;;;;;;;;;5031607;28;20037;-70
2022/08/07 09:25:25;;;;;;;5.50;3.85;;;;;;;;;;5033591;28;20647;-70
2022/08/07 09:28:10;;;;;;;10.10;6.47;;;;;;;;;;5030159;28;20405;-68
2022/08/07 09:30:55;;;;;;;5.75;3.80;;;;;;;;;;5022094;28;20017;-69
2022/08/07 09:33:35;;;;;;;5.32;3.47;;;;;;;;;;5028714;28;20018;-69
2022/08/07 09:36:07;;;;;;;6.25;3.60;;;;;;;;;;5031327;28;21837;-69
2022/08/07 09:38:43;;;;;;;5.45;3.90;;;;;;;;;;5031268;28;20036;-69
2022/08/07 09:41:23;;;;;;;7.43;5.13;;;;;;;;;;5023421;28;20021;-69
2022/08/07 09:44:01;;;;;;;15.82;13.10;;;;;;;;;;5031142;28;20116;-69
2022/08/07 09:46:45;;;;;;;12.43;4.50;;;;;;;;;;5033633;28;20120;-69
2022/08/07 09:49:11;;;;;;;8.55;3.78;;;;;;;;;;5031101;28;20025;-69
2022/08/07 09:51:46;;;;;;;31.38;19.42;;;;;;;;;;5033110;28;20026;-69
2022/08/07 09:54:22;;;;;;;6.05;4.10;;;;;;;;;;5027346;28;20112;-69
2022/08/07 09:57:00;;;;;;;12.63;5.47;;;;;;;;;;5031307;28;20056;-69
2022/08/07 09:59:33;;;;;;;9.70;7.50;;;;;;;;;;5032487;28;20189;-69
2022/08/07 10:02:05;;;;;;;11.90;5.10;;;;;;;;;;5031020;28;20117;-69
2022/08/07 10:04:51;;;;;;;11.20;6.15;;;;;;;;;;5030723;28;20100;-69
2022/08/07 10:07:34;;;;;;;5.72;4.10;;;;;;;;;;5026961;28;20091;-69
2022/08/07 10:10:27;;;;;;;5.10;4.05;;;;;;;;;;5032957;28;20542;-70
2022/08/07 10:13:25;;;;;;;12.65;6.00;;;;;;;;;;5025954;28;20033;-69
2022/08/07 10:16:03;;;;;;;8.70;5.22;;;;;;;;;;5030645;28;20121;-69
2022/08/07 10:18:50;;;;;;;8.48;4.50;;;;;;;;;;5031393;28;20100;-69
2022/08/07 10:21:34;;;;;;;7.03;4.78;;;;;;;;;;4951644;28;20035;-69
2022/08/07 10:24:09;;;;;;;8.45;4.63;;;;;;;;;;4950896;29;20159;-68
2022/08/07 10:26:54;;;;;;;6.63;4.18;;;;;;;;;;4951645;28;20090;-70
2022/08/07 10:29:38;;;;;;;6.68;4.15;;;;;;;;;;4951600;28;20062;-69
2022/08/07 10:32:13;;;;;;;40.13;7.57;;;;;;;;;;4951191;29;20062;-69
2022/08/07 10:35:06;;;;;;;6.30;4.05;;;;;;;;;;4948817;28;20047;-70
2022/08/07 10:37:38;;;;;;;4.40;3.90;;;;;;;;;;4950364;28;20514;-68
2022/08/07 10:40:10;;;;;;;8.68;4.50;;;;;;;;;;4949424;28;20549;-70
2022/08/07 10:42:46;;;;;;;13.23;4.60;;;;;;;;;;4951429;28;20027;-70
2022/08/07 10:45:23;;;;;;;9.68;4.63;;;;;;;;;;4952197;28;20051;-69
2022/08/07 10:48:03;;;;;;;7.78;5.18;;;;;;;;;;4950130;28;20067;-67
2022/08/07 10:50:33;;;;;;;11.75;4.80;;;;;;;;;;4951520;29;20465;-70
2022/08/07 10:53:04;;;;;;;12.10;6.55;;;;;;;;;;4951406;28;20040;-69
2022/08/07 10:55:34;;;;;;;8.25;4.75;;;;;;;;;;4951707;28;20015;-70
2022/08/07 10:58:07;;;;;;;7.18;4.45;;;;;;;;;;4979297;28;20056;-70
2022/08/07 11:00:35;;;;;;;6.27;4.77;;;;;;;;;;5028486;28;20076;-70
2022/08/07 11:03:13;;;;;;;8.30;5.57;;;;;;;;;;5032843;28;20251;-69
2022/08/07 11:05:49;;;;;;;10.25;4.60;;;;;;;;;;5031303;28;20498;-69
2022/08/07 11:08:33;;;;;;;10.30;4.82;;;;;;;;;;5032020;28;20041;-68
2022/08/07 11:11:07;;;;;;;5.70;4.80;;;;;;;;;;5027908;28;20529;-68
2022/08/07 11:13:39;;;;;;;6.63;4.88;;;;;;;;;;5031346;28;20160;-68
2022/08/07 11:16:11;;;;;;;6.40;4.80;;;;;;;;;;5029204;28;20068;-70
2022/08/07 11:18:48;;;;;;;7.85;5.03;;;;;;;;;;5031644;28;20056;-69
2022/08/07 11:21:32;;;;;;;9.45;4.72;;;;;;;;;;5031558;28;20026;-69
2022/08/07 11:24:02;;;;;;;9.93;4.70;;;;;;;;;;5029185;28;20028;-70
2022/08/07 11:26:52;;;;;;;6.72;4.60;;;;;;;;;;5031202;28;20029;-70
2022/08/07 11:29:25;;;;;;;12.95;5.13;;;;;;;;;;5030146;28;20057;-69
2022/08/07 11:31:53;;;;;;;23.10;7.35;;;;;;;;;;5031184;28;20076;-70
2022/08/07 11:34:28;;;;;;;6.05;4.70;;;;;;;;;;5022639;28;20053;-68
2022/08/07 11:37:01;;;;;;;9.35;4.95;;;;;;;;;;5031439;28;20037;-69
2022/08/07 11:39:51;;;;;;;22.00;5.95;;;;;;;;;;5013837;28;20467;-68
2022/08/07 11:42:32;;;;;;;10.93;5.28;;;;;;;;;;5014335;28;20033;-69
2022/08/07 11:45:08;;;;;;;7.43;4.35;;;;;;;;;;5031798;28;20031;-69
2022/08/07 11:47:40;;;;;;;8.05;4.57;;;;;;;;;;5028159;28;20021;-69
2022/08/07 11:50:18;;;;;;;8.25;4.35;;;;;;;;;;5031580;28;20025;-69
2022/08/07 11:53:02;;;;;;;43.92;6.60;;;;;;;;;;5030043;28;20028;-69
2022/08/07 11:55:47;;;;;;;8.05;4.43;;;;;;;;;;5031575;28;20029;-69
2022/08/07 11:58:16;;;;;;;62.75;7.32;;;;;;;;;;5022608;28;20044;-70
2022/08/07 12:00:57;;;;;;;17.70;5.63;;;;;;;;;;5031452;28;20026;-69
2022/08/07 12:03:24;;;;;;;21.35;6.13;;;;;;;;;;5033468;28;20034;-69
2022/08/07 12:05:53;;;;;;;13.77;5.15;;;;;;;;;;5034710;28;20021;-70
2022/08/07 12:08:40;;;;;;;11.98;4.70;;;;;;;;;;5029263;28;20034;-69
2022/08/07 12:11:13;;;;;;;9.65;4.60;;;;;;;;;;5031975;28;20029;-69
2022/08/07 12:13:42;;;;;;;96.30;8.63;;;;;;;;;;5034973;28;20022;-70
2022/08/07 12:16:15;;;;;;;12.70;4.70;;;;;;;;;;5034401;28;20033;-69
2022/08/07 12:18:46;;;;;;;9.02;4.20;;;;;;;;;;5033497;28;20025;-69
2022/08/07 12:21:31;;;;;;;12.43;4.40;;;;;;;;;;5034289;28;20031;-68
2022/08/07 12:24:03;;;;;;;13.73;4.63;;;;;;;;;;5024728;28;20029;-69
2022/08/07 12:26:38;;;;;;;6.45;4.38;;;;;;;;;;5034049;28;20026;-68
2022/08/07 12:29:10;;;;;;;6.53;4.43;;;;;;;;;;5031009;28;20029;-67
2022/08/07 12:31:55;;;;;;;5.03;4.32;;;;;;;;;;5030517;28;20029;-70
2022/08/07 12:34:21;;;;;;;7.78;4.60;;;;;;;;;;5033518;28;20479;-68
2022/08/07 12:36:48;;;;;;;9.27;4.80;;;;;;;;;;5032591;28;20039;-69
2022/08/07 12:39:14;;;;;;;10.65;4.75;;;;;;;;;;5031497;28;20037;-68
2022/08/07 12:41:41;;;;;;;35.08;7.07;;;;;;;;;;5032933;28;20026;-69
2022/08/07 12:44:08;;;;;;;6.65;4.32;;;;;;;;;;5028769;28;20040;-67
2022/08/07 12:46:53;;;;;;;25.58;5.50;;;;;;;;;;5032113;28;20030;-70
2022/08/07 12:49:28;;;;;;;8.05;4.45;;;;;;;;;;5032291;28;20036;-70
2022/08/07 12:52:01;;;;;;;13.15;4.38;;;;;;;;;;5030795;28;20505;-69
2022/08/07 12:54:54;;;;;;;7.25;4.85;;;;;;;;;;5029441;28;20436;-69
2022/08/07 12:57:22;;;;;;;10.63;5.15;;;;;;;;;;5024564;28;20049;-68
2022/08/07 12:59:50;;;;;;;6.15;4.43;;;;;;;;;;5033763;28;20029;-69
2022/08/07 13:02:26;;;;;;;7.35;4.07;;;;;;;;;;5034044;28;20029;-69
2022/08/07 13:05:01;;;;;;;6.53;4.03;;;;;;;;;;5031013;28;20044;-69
2022/08/07 13:07:30;;;;;;;6.68;3.92;;;;;;;;;;5031511;28;20041;-68
2022/08/07 13:10:11;;;;;;;8.20;4.13;;;;;;;;;;5032049;28;20021;-67
2022/08/07 13:12:53;;;;;;;8.23;4.47;;;;;;;;;;5031161;28;20025;-69
2022/08/07 13:15:38;;;;;;;7.07;3.70;;;;;;;;;;5029147;28;20033;-70
2022/08/07 13:18:06;;;;;;;14.80;3.97;;;;;;;;;;5031274;28;20033;-68
2022/08/07 13:20:42;;;;;;;8.23;3.90;;;;;;;;;;5033720;28;20167;-68
2022/08/07 13:23:11;;;;;;;7.72;3.90;;;;;;;;;;5029535;28;20108;-66
2022/08/07 13:25:39;;;;;;;8.07;4.65;;;;;;;;;;5031674;28;20139;-67
2022/08/07 13:28:28;;;;;;;9.07;4.40;;;;;;;;;;5033730;28;20033;-68
2022/08/07 13:31:17;;;;;;;8.85;4.10;;;;;;;;;;5032795;28;20029;-68
2022/08/07 13:33:55;;;;;;;5.20;4.10;;;;;;;;;;4972111;28;20038;-68
2022/08/07 13:36:25;;;;;;;20.73;4.75;;;;;;;;;;4972672;28;20127;-67
2022/08/07 13:38:54;;;;;;;6.35;3.75;;;;;;;;;;4970574;28;20035;-67
2022/08/07 13:41:41;;;;;;;5.43;3.90;;;;;;;;;;4971102;28;20077;-68
2022/08/07 13:44:08;;;;;;;5.32;4.25;;;;;;;;;;4972493;28;20090;-67
2022/08/07 13:46:39;;;;;;;5.60;3.97;;;;;;;;;;4972282;28;20065;-67
2022/08/07 13:49:06;;;;;;;8.10;4.25;;;;;;;;;;4970634;28;20034;-69
2022/08/07 13:51:33;;;;;;;5.70;3.75;;;;;;;;;;4966543;28;20050;-70
2022/08/07 13:54:02;;;;;;;7.90;4.05;;;;;;;;;;4971833;28;20493;-70
2022/08/07 13:56:30;;;;;;;7.40;4.10;;;;;;;;;;4971256;28;20027;-69
2022/08/07 13:58:59;;;;;;;8.23;4.20;;;;;;;;;;4971154;28;20124;-69
2022/08/07 14:01:29;;;;;;;6.70;3.95;;;;;;;;;;4971185;28;20030;-69
2022/08/07 14:03:56;;;;;;;11.48;4.75;;;;;;;;;;4971687;28;20050;-70
2022/08/07 14:06:24;;;;;;;8.38;3.90;;;;;;;;;;4971852;28;20089;-69
2022/08/07 14:08:52;;;;;;;6.90;4.03;;;;;;;;;;4960625;28;20049;-69
2022/08/07 14:11:20;;;;;;;9.52;4.30;;;;;;;;;;5017297;28;20505;-69
2022/08/07 14:13:54;;;;;;;5.85;3.72;;;;;;;;;;5032521;28;20022;-70
2022/08/07 14:16:21;;;;;;;5.57;3.75;;;;;;;;;;5032766;28;20084;-70
2022/08/07 14:18:48;;;;;;;7.70;4.18;;;;;;;;;;5028871;28;20021;-70
2022/08/07 14:21:20;;;;;;;7.15;4.10;;;;;;;;;;5031538;28;20112;-70
2022/08/07 14:24:07;;;;;;;11.52;3.97;;;;;;;;;;5032549;28;20016;-70
2022/08/07 14:26:48;;;;;;;8.75;4.28;;;;;;;;;;5014654;28;20049;-70
2022/08/07 14:29:16;;;;;;;8.55;4.25;;;;;;;;;;5030527;28;20021;-70
2022/08/07 14:31:43;;;;;;;6.05;4.25;;;;;;;;;;5032332;28;20026;-69
2022/08/07 14:34:11;;;;;;;7.90;3.90;;;;;;;;;;5032006;28;20564;-67
2022/08/07 14:36:38;;;;;;;15.25;4.82;;;;;;;;;;5032329;28;20390;-67
2022/08/07 14:39:04;;;;;;;5.35;4.00;;;;;;;;;;5031955;28;20021;-68
2022/08/07 14:41:31;;;;;;;6.53;4.20;;;;;;;;;;5032179;28;20132;-67
2022/08/07 14:43:58;;;;;;;9.15;4.90;;;;;;;;;;5032237;28;20502;-67
2022/08/07 14:46:24;;;;;;;6.20;4.10;;;;;;;;;;5032241;28;20061;-68
2022/08/07 14:48:51;;;;;;;7.13;4.10;;;;;;;;;;5031343;28;20025;-68
2022/08/07 14:51:19;;;;;;;9.90;4.20;;;;;;;;;;5031308;28;20505;-67
2022/08/07 14:53:46;;;;;;;5.05;3.67;;;;;;;;;;5032056;28;20033;-65
2022/08/07 14:56:13;;;;;;;5.80;4.00;;;;;;;;;;5032003;28;20477;-68
2022/08/07 14:58:44;;;;;;;4.97;3.97;;;;;;;;;;5031758;28;20029;-70
2022/08/07 15:01:12;;;;;;;5.63;4.10;;;;;;;;;;5032106;28;20025;-70
2022/08/07 15:03:39;;;;;;;6.20;4.43;;;;;;;;;;5032240;28;20424;-70
2022/08/07 15:06:06;;;;;;;7.40;4.25;;;;;;;;;;5032045;28;20033;-69